createdAt,value
2018-12-26T00:01:10.839Z,57.50
2018-12-26T00:03:39.922Z,54.70
2018-12-26T00:06:11.395Z,57.40
2018-12-26T00:08:40.515Z,58.33
2018-12-26T00:11:09.613Z,61.70
2018-12-26T00:13:38.692Z,57.50
2018-12-26T00:16:07.835Z,49.63
2018-12-26T00:18:38.140Z,49.23
2018-12-26T00:21:07.254Z,49.07
2018-12-26T00:23:36.375Z,45.40
2018-12-26T00:26:05.473Z,50.53
2018-12-26T00:28:34.421Z,48.33
2018-12-26T00:31:05.897Z,55.23
2018-12-26T00:33:34.987Z,53.70
2018-12-26T00:36:04.115Z,55.63
2018-12-26T00:38:33.309Z,60.70
2018-12-26T00:41:02.702Z,53.57
2018-12-26T00:43:31.798Z,62.10
2018-12-26T00:46:00.913Z,56.30
2018-12-26T00:48:30.004Z,60.13
2018-12-26T00:51:01.294Z,58.20
2018-12-26T00:53:30.436Z,62.17
2018-12-26T00:55:59.762Z,57.63
2018-12-26T00:58:28.857Z,57.07
2018-12-26T01:00:57.985Z,55.67
2018-12-26T01:03:27.070Z,54.67
2018-12-26T01:05:56.162Z,48.07
2018-12-26T01:08:25.368Z,48.37
2018-12-26T01:10:55.715Z,45.90
2018-12-26T01:13:24.734Z,50.43
2018-12-26T01:15:53.777Z,45.37
2018-12-26T01:18:22.871Z,46.00
2018-12-26T01:20:51.975Z,47.73
2018-12-26T01:23:21.094Z,49.87
2018-12-26T01:25:50.200Z,49.43
2018-12-26T01:28:19.213Z,47.63
2018-12-26T01:30:48.567Z,51.53
2018-12-26T01:33:17.657Z,49.53
2018-12-26T01:35:46.683Z,49.90
2018-12-26T01:38:15.893Z,49.03
2018-12-26T01:40:45.145Z,51.63
2018-12-26T01:43:14.267Z,47.13
2018-12-26T01:45:43.385Z,49.43
2018-12-26T01:48:12.533Z,50.37
2018-12-26T01:50:41.722Z,52.57
2018-12-26T01:53:10.853Z,53.93
2018-12-26T01:55:40.189Z,54.37
2018-12-26T01:58:10.179Z,55.83
2018-12-26T02:00:39.304Z,52.07
2018-12-26T02:03:08.392Z,49.93
2018-12-26T02:05:37.415Z,50.20
2018-12-26T02:08:06.500Z,50.17
2018-12-26T02:10:35.648Z,55.27
2018-12-26T02:13:04.996Z,46.93
2018-12-26T02:15:34.427Z,52.73
2018-12-26T02:18:03.514Z,49.97
2018-12-26T02:20:32.818Z,56.10
2018-12-26T02:23:01.944Z,57.50
2018-12-26T02:25:31.036Z,54.57
2018-12-26T02:28:00.133Z,56.73
2018-12-26T02:30:29.243Z,54.13
2018-12-26T02:32:58.364Z,54.40
2018-12-26T02:35:27.529Z,52.23
2018-12-26T02:37:56.656Z,49.87
2018-12-26T02:40:25.766Z,56.00
2018-12-26T02:42:54.776Z,57.70
2018-12-26T02:45:23.894Z,54.13
2018-12-26T02:47:52.982Z,60.23
2018-12-26T02:50:22.055Z,57.53
2018-12-26T02:52:51.173Z,47.57
2018-12-26T02:55:20.548Z,45.20
2018-12-26T02:57:51.879Z,50.10
2018-12-26T03:00:21.001Z,53.50
2018-12-26T03:02:51.205Z,48.87
2018-12-26T03:05:20.298Z,49.00
2018-12-26T03:07:51.443Z,57.17
2018-12-26T03:10:20.580Z,59.73
2018-12-26T03:12:49.828Z,57.00
2018-12-26T03:15:18.933Z,59.70
2018-12-26T03:17:48.232Z,57.30
2018-12-26T03:20:19.449Z,60.40
2018-12-26T03:22:48.570Z,59.03
2018-12-26T03:25:19.130Z,56.77
2018-12-26T03:27:48.221Z,55.47
2018-12-26T03:30:17.678Z,54.93
2018-12-26T03:32:48.041Z,50.97
2018-12-26T03:35:17.149Z,53.63
2018-12-26T03:37:46.255Z,52.40
2018-12-26T03:40:15.402Z,53.17
2018-12-26T03:42:44.581Z,57.20
2018-12-26T03:45:13.922Z,54.47
2018-12-26T03:47:46.139Z,51.17
2018-12-26T03:50:15.290Z,50.27
2018-12-26T03:52:45.535Z,52.10
2018-12-26T03:55:14.737Z,49.47
2018-12-26T03:57:43.826Z,47.93
2018-12-26T04:00:12.944Z,50.97
2018-12-26T04:02:42.026Z,46.97
2018-12-26T04:05:11.607Z,47.23
2018-12-26T04:07:40.739Z,48.40
2018-12-26T04:10:10.128Z,48.60
2018-12-26T04:12:39.370Z,48.77
2018-12-26T04:15:08.548Z,54.53
2018-12-26T04:17:37.759Z,52.03
2018-12-26T04:20:06.859Z,48.93
2018-12-26T04:22:36.091Z,52.37
2018-12-26T04:25:05.208Z,50.87
2018-12-26T04:27:34.381Z,51.30
2018-12-26T04:30:03.586Z,53.40
2018-12-26T04:32:34.759Z,56.60
2018-12-26T04:35:03.895Z,58.93
2018-12-26T04:37:33.248Z,58.00
2018-12-26T04:40:02.414Z,54.20
2018-12-26T04:42:31.511Z,59.43
2018-12-26T04:45:00.623Z,58.10
2018-12-26T04:47:30.076Z,64.50
2018-12-26T04:49:59.104Z,56.93
2018-12-26T04:52:28.164Z,62.50
2018-12-26T04:54:59.318Z,63.70
2018-12-26T04:57:28.314Z,66.80
2018-12-26T04:59:57.686Z,63.07
2018-12-26T05:02:26.884Z,64.67
2018-12-26T05:04:55.960Z,65.90
2018-12-26T05:07:25.096Z,65.37
2018-12-26T05:09:54.120Z,63.57
2018-12-26T05:12:23.196Z,63.07
2018-12-26T05:14:54.103Z,63.67
2018-12-26T05:17:23.399Z,64.93
2018-12-26T05:19:52.495Z,63.27
2018-12-26T05:22:21.631Z,61.47
2018-12-26T05:24:50.834Z,63.00
2018-12-26T05:27:22.252Z,62.33
2018-12-26T05:29:51.309Z,63.37
2018-12-26T05:32:20.471Z,68.43
2018-12-26T05:34:49.573Z,63.23
2018-12-26T05:37:18.778Z,64.67
2018-12-26T05:39:47.917Z,65.07
2018-12-26T05:42:17.008Z,64.93
2018-12-26T05:44:46.128Z,68.73
2018-12-26T05:47:15.473Z,66.57
2018-12-26T05:49:44.618Z,62.23
2018-12-26T05:52:13.772Z,62.60
2018-12-26T05:54:42.870Z,66.13
2018-12-26T05:57:11.895Z,66.00
2018-12-26T05:59:42.062Z,66.80
2018-12-26T06:02:11.066Z,67.60
2018-12-26T06:04:40.254Z,68.13
2018-12-26T06:07:13.238Z,67.47
2018-12-26T06:09:42.323Z,65.30
2018-12-26T06:12:11.591Z,70.37
2018-12-26T06:14:40.880Z,68.70
2018-12-26T06:17:09.878Z,67.40
2018-12-26T06:19:38.971Z,70.20
2018-12-26T06:22:08.022Z,71.30
2018-12-26T06:24:37.049Z,72.73
2018-12-26T06:27:06.145Z,66.30
2018-12-26T06:29:35.478Z,66.43
2018-12-26T06:32:05.321Z,67.47
2018-12-26T06:34:36.752Z,64.90
2018-12-26T06:37:06.192Z,72.37
2018-12-26T06:39:36.114Z,66.60
2018-12-26T06:42:05.268Z,70.43
2018-12-26T06:44:34.417Z,68.67
2018-12-26T06:47:03.633Z,68.33
2018-12-26T06:49:33.628Z,65.97
2018-12-26T06:52:14.173Z,65.67
2018-12-26T06:54:43.181Z,65.33
2018-12-26T06:57:12.794Z,67.43
2018-12-26T06:59:42.182Z,71.57
2018-12-26T07:02:11.302Z,64.17
2018-12-26T07:04:40.424Z,70.07
2018-12-26T07:07:09.558Z,65.30
2018-12-26T07:09:38.764Z,70.03
2018-12-26T07:12:07.868Z,65.53
2018-12-26T07:14:36.936Z,64.13
2018-12-26T07:17:06.352Z,56.23
2018-12-26T07:19:36.238Z,55.47
2018-12-26T07:22:05.680Z,58.80
2018-12-26T07:24:35.072Z,53.60
2018-12-26T07:27:06.292Z,55.60
2018-12-26T07:29:35.588Z,53.43
2018-12-26T07:32:04.738Z,55.53
2018-12-26T07:34:41.952Z,65.77
2018-12-26T07:37:05.182Z,67.27
2018-12-26T07:39:34.288Z,70.17
2018-12-26T07:42:03.355Z,72.40
2018-12-26T07:44:34.365Z,74.13
2018-12-26T07:47:03.484Z,74.53
2018-12-26T07:49:32.429Z,73.83
2018-12-26T07:52:01.471Z,75.57
2018-12-26T07:54:30.570Z,76.47
2018-12-26T07:56:59.744Z,76.17
2018-12-26T07:59:37.413Z,78.93
2018-12-26T08:01:59.981Z,73.50
2018-12-26T08:04:29.097Z,65.33
2018-12-26T08:06:58.551Z,63.20
2018-12-26T08:09:27.647Z,61.67
2018-12-26T08:11:56.727Z,63.50
2018-12-26T08:14:25.863Z,66.87
2018-12-26T08:16:54.957Z,62.90
2018-12-26T08:19:24.033Z,64.20
2018-12-26T08:21:53.886Z,64.40
2018-12-26T08:24:22.989Z,72.87
2018-12-26T08:26:53.618Z,74.43
2018-12-26T08:29:22.917Z,74.23
2018-12-26T08:31:51.942Z,67.30
2018-12-26T08:34:21.033Z,69.43
2018-12-26T08:36:50.180Z,70.77
2018-12-26T08:39:19.412Z,75.80
2018-12-26T08:41:48.534Z,74.30
2018-12-26T08:44:18.705Z,71.07
2018-12-26T08:46:47.798Z,70.97
2018-12-26T08:49:20.635Z,65.33
2018-12-26T08:51:49.770Z,66.07
2018-12-26T08:54:23.635Z,61.43
2018-12-26T08:56:52.726Z,64.10
2018-12-26T08:59:21.776Z,58.23
2018-12-26T09:01:50.930Z,57.13
2018-12-26T09:04:20.078Z,61.20
2018-12-26T09:06:51.211Z,61.97
2018-12-26T09:09:22.607Z,67.33
2018-12-26T09:11:51.715Z,66.50
2018-12-26T09:14:20.842Z,62.43
2018-12-26T09:16:49.951Z,58.07
2018-12-26T09:19:19.092Z,56.67
2018-12-26T09:21:48.217Z,61.77
2018-12-26T09:24:17.683Z,57.57
2018-12-26T09:26:46.771Z,58.03
2018-12-26T09:29:18.171Z,55.23
2018-12-26T09:31:47.360Z,56.97
2018-12-26T09:34:16.476Z,55.00
2018-12-26T09:36:45.604Z,55.23
2018-12-26T09:39:15.942Z,56.50
2018-12-26T09:41:46.850Z,54.47
2018-12-26T09:44:15.901Z,55.57
2018-12-26T09:46:45.296Z,55.13
2018-12-26T09:49:14.399Z,58.90
2018-12-26T09:51:43.541Z,54.17
2018-12-26T09:54:12.637Z,51.73
2018-12-26T09:56:44.339Z,53.33
2018-12-26T09:59:13.395Z,53.80
2018-12-26T10:01:42.516Z,49.90
2018-12-26T10:04:11.611Z,51.13
2018-12-26T10:06:40.753Z,53.97
2018-12-26T10:09:11.145Z,50.00
2018-12-26T10:11:40.255Z,51.37
2018-12-26T10:14:09.530Z,51.83
2018-12-26T10:16:38.626Z,56.30
2018-12-26T10:19:07.666Z,53.27
2018-12-26T10:21:36.876Z,48.13
2018-12-26T10:24:05.988Z,47.73
2018-12-26T10:26:35.080Z,46.50
2018-12-26T10:29:04.228Z,44.93
2018-12-26T10:31:33.328Z,46.80
2018-12-26T10:34:02.418Z,43.30
2018-12-26T10:36:31.622Z,43.07
2018-12-26T10:39:00.707Z,47.37
2018-12-26T10:41:30.116Z,42.67
2018-12-26T10:43:59.276Z,43.53
2018-12-26T10:46:28.456Z,45.37
2018-12-26T10:48:57.507Z,44.00
2018-12-26T10:51:26.489Z,45.67
2018-12-26T10:53:55.525Z,46.10
2018-12-26T10:56:24.627Z,40.33
2018-12-26T10:58:53.915Z,37.77
2018-12-26T11:01:23.335Z,46.37
2018-12-26T11:03:55.681Z,42.10
2018-12-26T11:06:25.064Z,40.27
2018-12-26T11:08:54.151Z,42.23
2018-12-26T11:11:24.612Z,40.33
2018-12-26T11:13:54.218Z,43.30
2018-12-26T11:16:23.321Z,41.30
2018-12-26T11:18:54.179Z,39.20
2018-12-26T11:21:26.278Z,38.20
2018-12-26T11:23:58.558Z,42.90
2018-12-26T11:26:27.431Z,39.83
2018-12-26T11:28:56.591Z,45.07
2018-12-26T11:31:25.711Z,40.03
2018-12-26T11:33:55.941Z,42.90
2018-12-26T11:36:26.032Z,43.37
2018-12-26T11:39:00.747Z,41.73
2018-12-26T11:41:29.913Z,45.13
2018-12-26T11:43:58.943Z,42.37
2018-12-26T11:46:28.365Z,43.13
2018-12-26T11:48:59.035Z,42.77
2018-12-26T11:51:28.152Z,40.50
2018-12-26T11:53:57.321Z,41.33
2018-12-26T11:56:26.526Z,42.30
2018-12-26T11:58:57.416Z,39.60
2018-12-26T12:01:26.500Z,41.47
2018-12-26T12:03:58.436Z,37.70
2018-12-26T12:06:27.534Z,37.33
2018-12-26T12:08:57.644Z,44.30
2018-12-26T12:11:26.790Z,46.77
2018-12-26T12:13:55.992Z,42.53
2018-12-26T12:16:25.100Z,48.33
2018-12-26T12:18:54.488Z,47.83
2018-12-26T12:21:23.687Z,42.63
2018-12-26T12:23:54.028Z,43.87
2018-12-26T12:26:23.192Z,45.07
2018-12-26T12:28:54.726Z,48.77
2018-12-26T12:31:26.228Z,46.60
2018-12-26T12:33:56.160Z,50.27
2018-12-26T12:36:25.261Z,46.30
2018-12-26T12:38:54.300Z,48.20
2018-12-26T12:41:23.422Z,47.73
2018-12-26T12:43:53.610Z,43.60
2018-12-26T12:46:23.137Z,46.80
2018-12-26T12:48:52.321Z,44.93
2018-12-26T12:51:21.827Z,44.57
2018-12-26T12:53:51.217Z,43.63
2018-12-26T12:56:20.403Z,44.40
2018-12-26T12:58:49.523Z,47.70
2018-12-26T13:01:18.627Z,50.27
2018-12-26T13:03:48.043Z,54.57
2018-12-26T13:06:17.552Z,53.43
2018-12-26T13:08:47.149Z,57.60
2018-12-26T13:11:16.266Z,54.33
2018-12-26T13:13:45.386Z,56.70
2018-12-26T13:16:14.769Z,55.70
2018-12-26T13:18:43.928Z,57.37
2018-12-26T13:21:12.956Z,54.60
2018-12-26T13:23:41.987Z,59.70
2018-12-26T13:26:11.120Z,61.80
2018-12-26T13:28:40.127Z,60.60
2018-12-26T13:31:09.234Z,65.33
2018-12-26T13:33:38.377Z,59.27
2018-12-26T13:36:08.464Z,56.50
2018-12-26T13:38:37.571Z,63.37
2018-12-26T13:41:09.495Z,53.67
2018-12-26T13:43:38.864Z,60.07
2018-12-26T13:46:09.772Z,60.87
2018-12-26T13:48:39.634Z,60.00
2018-12-26T13:51:09.979Z,72.30
2018-12-26T13:53:39.089Z,72.53
2018-12-26T13:56:08.279Z,71.57
2018-12-26T13:58:37.313Z,72.60
2018-12-26T14:01:06.486Z,76.20
2018-12-26T14:03:36.737Z,73.87
2018-12-26T14:06:05.858Z,68.37
2018-12-26T14:08:35.178Z,69.97
2018-12-26T14:11:04.327Z,61.77
2018-12-26T14:13:33.602Z,65.33
2018-12-26T14:16:03.002Z,60.47
2018-12-26T14:18:32.778Z,61.90
2018-12-26T14:21:01.892Z,63.17
2018-12-26T14:23:31.017Z,59.67
2018-12-26T14:26:00.340Z,60.20
2018-12-26T14:28:29.565Z,57.57
2018-12-26T14:31:00.918Z,53.40
2018-12-26T14:33:30.168Z,46.60
2018-12-26T14:36:03.338Z,48.60
2018-12-26T14:38:33.614Z,49.07
2018-12-26T14:41:02.858Z,51.53
2018-12-26T14:43:32.430Z,48.90
2018-12-26T14:46:01.569Z,48.50
2018-12-26T14:48:31.027Z,53.77
2018-12-26T14:51:00.394Z,51.33
2018-12-26T14:53:31.135Z,55.07
2018-12-26T14:56:00.449Z,51.70
2018-12-26T14:58:29.805Z,49.80
2018-12-26T15:00:59.110Z,49.33
2018-12-26T15:03:31.525Z,55.60
2018-12-26T15:06:00.847Z,50.53
2018-12-26T15:08:31.671Z,49.53
2018-12-26T15:11:00.905Z,50.73
2018-12-26T15:13:30.007Z,46.00
2018-12-26T15:15:59.051Z,48.47
2018-12-26T15:18:28.128Z,46.77
2018-12-26T15:20:57.279Z,45.90
2018-12-26T15:23:27.844Z,49.43
2018-12-26T15:25:56.973Z,45.63
2018-12-26T15:28:26.074Z,50.83
2018-12-26T15:30:56.338Z,49.97
2018-12-26T15:33:28.074Z,43.87
2018-12-26T15:35:58.007Z,41.73
2018-12-26T15:38:27.836Z,40.57
2018-12-26T15:40:57.027Z,41.63
2018-12-26T15:43:26.126Z,36.63
2018-12-26T15:45:55.251Z,48.97
2018-12-26T15:48:24.460Z,51.20
2018-12-26T15:50:53.893Z,54.50
2018-12-26T15:53:23.158Z,56.77
2018-12-26T15:55:53.493Z,55.80
2018-12-26T15:58:23.564Z,62.17
2018-12-26T16:00:52.937Z,60.33
2018-12-26T16:03:22.330Z,96.67
2018-12-26T16:05:52.199Z,84.77
2018-12-26T16:08:21.676Z,76.47
2018-12-26T16:10:54.588Z,70.20
2018-12-26T16:13:26.599Z,76.90
2018-12-26T16:15:56.708Z,73.03
2018-12-26T16:18:26.615Z,79.63
2018-12-26T16:20:55.739Z,75.93
2018-12-26T16:23:24.843Z,77.40
2018-12-26T16:25:56.159Z,83.40
2018-12-26T16:28:26.554Z,86.20
2018-12-26T16:30:55.903Z,80.47
2018-12-26T16:33:25.531Z,90.03
2018-12-26T16:35:55.325Z,94.67
2018-12-26T16:38:24.458Z,91.43
2018-12-26T16:40:54.205Z,90.67
2018-12-26T16:43:23.638Z,99.27
2018-12-26T16:45:54.215Z,97.33
2018-12-26T16:48:23.453Z,98.33
2018-12-26T16:50:55.816Z,100.57
2018-12-26T16:53:25.472Z,97.53
2018-12-26T16:58:59.133Z,90.27
2018-12-26T17:01:32.009Z,94.13
2018-12-26T17:04:03.574Z,89.40
2018-12-26T17:06:32.768Z,91.93
2018-12-26T17:09:01.944Z,92.57
2018-12-26T17:11:34.381Z,88.90
2018-12-26T17:14:03.728Z,101.67
2018-12-26T17:16:34.852Z,95.43
2018-12-26T17:19:04.451Z,95.40
2018-12-26T17:21:33.654Z,95.57
2018-12-26T17:24:02.781Z,91.87
2018-12-26T17:26:31.912Z,85.83
2018-12-26T17:29:04.471Z,88.87
2018-12-26T17:31:35.165Z,87.07
2018-12-26T17:34:04.295Z,81.70
2018-12-26T17:36:33.911Z,82.30
2018-12-26T17:39:03.163Z,81.23
2018-12-26T17:41:32.259Z,77.23
2018-12-26T17:44:01.575Z,80.67
2018-12-26T17:46:31.749Z,81.73
2018-12-26T17:49:04.260Z,82.30
2018-12-26T17:51:37.991Z,80.90
2018-12-26T17:54:31.691Z,79.83
2018-12-26T17:57:07.965Z,78.93
2018-12-26T17:59:41.661Z,80.43
2018-12-26T18:02:36.724Z,80.37
2018-12-26T18:05:06.218Z,91.33
2018-12-26T18:07:35.264Z,94.27
2018-12-26T18:10:06.005Z,116.30
2018-12-26T18:12:35.138Z,105.27
2018-12-26T18:15:05.759Z,100.30
2018-12-26T18:17:34.879Z,95.07
2018-12-26T18:20:04.073Z,100.97
2018-12-26T18:22:33.182Z,104.73
2018-12-26T18:25:02.330Z,100.90
2018-12-26T18:27:31.886Z,93.00
2018-12-26T18:30:00.996Z,92.63
2018-12-26T18:32:32.209Z,82.27
2018-12-26T18:35:02.072Z,84.93
2018-12-26T18:37:31.123Z,84.27
2018-12-26T18:40:00.176Z,77.20
2018-12-26T18:42:29.345Z,81.80
2018-12-26T18:44:58.570Z,75.23
2018-12-26T18:47:27.650Z,85.57
2018-12-26T18:49:56.771Z,84.60
2018-12-26T18:52:25.906Z,79.40
2018-12-26T18:54:55.252Z,83.63
2018-12-26T18:57:24.953Z,86.23
2018-12-26T18:59:55.779Z,89.63
2018-12-26T19:02:25.339Z,83.93
2018-12-26T19:04:56.199Z,79.50
2018-12-26T19:07:25.519Z,88.33
2018-12-26T19:09:54.614Z,92.23
2018-12-26T19:12:23.734Z,92.53
2018-12-26T19:14:54.975Z,89.60
2018-12-26T19:17:24.079Z,95.77
2018-12-26T19:19:53.203Z,90.03
2018-12-26T19:22:24.377Z,89.00
2018-12-26T19:24:53.471Z,86.83
2018-12-26T19:27:24.714Z,73.50
2018-12-26T19:29:59.404Z,103.20
2018-12-26T19:32:26.566Z,93.07
2018-12-26T19:34:55.670Z,101.47
2018-12-26T19:37:24.771Z,105.20
2018-12-26T19:39:54.123Z,105.97
2018-12-26T19:42:23.236Z,105.20
2018-12-26T19:44:52.670Z,102.33
2018-12-26T19:47:21.830Z,94.17
2018-12-26T19:49:50.934Z,94.43
2018-12-26T19:52:20.069Z,99.77
2018-12-26T19:54:49.221Z,95.13
2018-12-26T19:57:18.568Z,95.30
2018-12-26T19:59:47.615Z,96.27
2018-12-26T20:02:16.711Z,106.03
2018-12-26T20:04:46.047Z,103.87
2018-12-26T20:07:15.441Z,104.13
2018-12-26T20:09:45.921Z,108.30
2018-12-26T20:12:16.654Z,103.27
2018-12-26T20:14:45.803Z,102.70
2018-12-26T20:17:15.011Z,105.03
2018-12-26T20:19:44.105Z,107.00
2018-12-26T20:22:13.251Z,102.33
2018-12-26T20:24:42.640Z,109.90
2018-12-26T20:27:12.555Z,101.70
2018-12-26T20:29:41.743Z,93.03
2018-12-26T20:32:10.933Z,100.03
2018-12-26T20:34:40.343Z,95.80
2018-12-26T20:37:09.476Z,100.57
2018-12-26T20:39:38.564Z,99.73
2018-12-26T20:42:08.050Z,92.53
2018-12-26T20:44:37.235Z,88.53
2018-12-26T20:47:06.426Z,88.93
2018-12-26T20:49:35.570Z,95.27
2018-12-26T20:52:04.804Z,89.33
2018-12-26T20:54:33.908Z,91.73
2018-12-26T20:57:03.033Z,102.93
2018-12-26T20:59:32.177Z,98.60
2018-12-26T21:02:05.639Z,100.77
2018-12-26T21:04:32.104Z,105.83
2018-12-26T21:07:01.228Z,99.20
2018-12-26T21:09:30.337Z,98.57
2018-12-26T21:11:59.369Z,105.33
2018-12-26T21:14:28.395Z,106.17
2018-12-26T21:16:57.741Z,102.47
2018-12-26T21:19:26.849Z,105.97
2018-12-26T21:21:55.988Z,101.40
2018-12-26T21:24:25.155Z,103.27
2018-12-26T21:26:54.255Z,106.03
2018-12-26T21:29:30.454Z,96.20
2018-12-26T21:31:59.583Z,100.70
2018-12-26T21:34:28.704Z,106.43
2018-12-26T21:36:57.820Z,100.87
2018-12-26T21:39:28.157Z,103.47
2018-12-26T21:41:57.262Z,100.20
2018-12-26T21:44:26.430Z,87.63
2018-12-26T21:46:55.762Z,121.23
2018-12-26T21:49:25.888Z,103.90
2018-12-26T21:51:55.105Z,101.43
2018-12-26T21:54:24.512Z,103.23
2018-12-26T21:56:53.864Z,91.57
2018-12-26T21:59:23.478Z,91.80
2018-12-26T22:01:53.756Z,92.87
2018-12-26T22:04:24.848Z,91.43
2018-12-26T22:06:54.757Z,90.27
2018-12-26T22:09:24.148Z,98.70
2018-12-26T22:11:54.343Z,91.33
2018-12-26T22:14:23.714Z,93.60
2018-12-26T22:16:53.964Z,93.37
2018-12-26T22:19:23.097Z,93.90
2018-12-26T22:21:53.855Z,94.77
2018-12-26T22:24:22.976Z,93.57
2018-12-26T22:26:52.091Z,90.30
2018-12-26T22:29:21.225Z,88.50
2018-12-26T22:31:50.237Z,83.33
2018-12-26T22:34:19.249Z,89.07
2018-12-26T22:36:48.367Z,79.97
2018-12-26T22:39:17.381Z,83.17
2018-12-26T22:41:46.453Z,82.50
2018-12-26T22:44:15.583Z,86.30
2018-12-26T22:46:45.011Z,83.40
2018-12-26T22:49:14.107Z,93.77
2018-12-26T22:51:43.236Z,89.97
2018-12-26T22:54:12.589Z,85.27
2018-12-26T22:56:43.014Z,80.97
2018-12-26T22:59:14.692Z,78.40
2018-12-26T23:01:44.291Z,80.67
2018-12-26T23:04:13.454Z,72.70
2018-12-26T23:06:44.959Z,75.30
2018-12-26T23:09:14.067Z,79.10
2018-12-26T23:11:45.347Z,76.60
2018-12-26T23:14:14.466Z,84.67
2018-12-26T23:16:43.850Z,82.60
2018-12-26T23:19:12.961Z,81.70
2018-12-26T23:21:42.130Z,86.17
2018-12-26T23:24:11.274Z,80.23
2018-12-26T23:26:40.418Z,90.40
2018-12-26T23:29:09.799Z,82.83
2018-12-26T23:31:38.898Z,88.10
2018-12-26T23:34:08.231Z,85.17
2018-12-26T23:36:37.969Z,85.13
2018-12-26T23:39:07.566Z,87.23
2018-12-26T23:41:36.939Z,88.47
2018-12-26T23:44:05.983Z,90.17
2018-12-26T23:46:35.073Z,86.63
2018-12-26T23:49:04.682Z,80.70
2018-12-26T23:51:34.299Z,94.27
2018-12-26T23:54:05.067Z,94.73
2018-12-26T23:56:35.057Z,89.50
2018-12-26T23:59:04.174Z,86.90
